Time;durP1;ratioP1;P1;durP2;ratioP2;P2;SDS_P1;SDS_P2;PMS_P1;PMS_P2;Temp;Humidity;BMP_temperature;BMP_pressure;BME280_temperature;BME280_humidity;BME280_pressure;Samples;Min_cycle;Max_cycle;Signal;HPM_P1;HPM_P2
2023/06/14 00:00:44;;;;;;;7.80;4.10;;;;;;;17.98;100.00;98880.88;5052368;28;20695;-79
2023/06/14 00:03:11;;;;;;;6.90;4.10;;;;;;;17.92;100.00;98886.66;5053232;28;20222;-79
2023/06/14 00:05:42;;;;;;;6.70;4.10;;;;;;;17.82;100.00;98887.63;5052765;28;20289;-80
2023/06/14 00:08:10;;;;;;;7.30;4.27;;;;;;;17.84;100.00;98890.88;5052884;28;20251;-80
2023/06/14 00:10:37;;;;;;;5.90;4.10;;;;;;;17.83;100.00;98899.63;5052501;28;20219;-79
2023/06/14 00:13:07;;;;;;;9.07;4.20;;;;;;;17.86;100.00;98891.53;5052308;28;20213;-80
2023/06/14 00:15:34;;;;;;;7.63;4.43;;;;;;;17.88;100.00;98892.16;5053337;28;20270;-80
2023/06/14 00:18:02;;;;;;;6.80;4.07;;;;;;;17.88;100.00;98889.56;5053075;28;20690;-80
2023/06/14 00:20:29;;;;;;;7.43;4.43;;;;;;;17.92;100.00;98886.66;5053035;28;20246;-80
2023/06/14 00:22:56;;;;;;;6.97;4.07;;;;;;;17.93;100.00;98883.13;5052451;28;20207;-79
2023/06/14 00:25:25;;;;;;;7.43;4.00;;;;;;;17.90;100.00;98879.06;5052300;28;20222;-79
2023/06/14 00:27:52;;;;;;;9.50;4.57;;;;;;;17.89;100.00;98882.66;5052333;28;20257;-80
2023/06/14 00:30:20;;;;;;;7.67;4.30;;;;;;;17.90;100.00;98868.72;5051838;28;20230;-79
2023/06/14 00:32:48;;;;;;;6.53;4.00;;;;;;;17.90;100.00;98876.50;5052366;28;20203;-80
2023/06/14 00:35:15;;;;;;;8.67;4.37;;;;;;;17.86;100.00;98877.81;5052129;28;20733;-79
2023/06/14 00:37:42;;;;;;;6.93;4.13;;;;;;;17.84;100.00;98870.19;5052096;28;20283;-79
2023/06/14 00:40:09;;;;;;;7.43;4.10;;;;;;;17.83;100.00;98866.00;5051759;28;20233;-80
2023/06/14 00:42:36;;;;;;;6.30;3.87;;;;;;;17.86;100.00;98865.66;5051655;28;20218;-80
2023/06/14 00:45:03;;;;;;;8.97;4.27;;;;;;;17.81;100.00;98855.00;5051733;28;20632;-80
2023/06/14 00:47:31;;;;;;;7.63;4.20;;;;;;;17.85;100.00;98850.31;5051989;28;20218;-79
2023/06/14 00:49:58;;;;;;;7.70;4.60;;;;;;;17.83;100.00;98850.47;5052022;28;20280;-79
2023/06/14 00:52:25;;;;;;;7.50;4.17;;;;;;;17.83;100.00;98849.66;5050848;28;20256;-79
2023/06/14 00:54:52;;;;;;;11.83;4.47;;;;;;;17.82;100.00;98851.44;5051730;28;20200;-80
2023/06/14 00:57:20;;;;;;;9.27;4.43;;;;;;;17.81;100.00;98855.00;5052367;28;20206;-79
2023/06/14 00:59:49;;;;;;;9.63;4.40;;;;;;;17.79;100.00;98851.75;5051273;28;20516;-79
2023/06/14 01:02:17;;;;;;;7.53;4.30;;;;;;;17.77;100.00;98858.88;5051328;28;20694;-79
2023/06/14 01:04:48;;;;;;;9.27;4.47;;;;;;;17.73;100.00;98857.56;5052450;28;20213;-79
2023/06/14 01:07:32;;;;;;;9.53;4.30;;;;;;;17.68;100.00;98864.97;5051369;28;20289;-80
2023/06/14 01:10:15;;;;;;;6.23;3.63;;;;;;;17.66;100.00;98856.59;5051118;28;20226;-79
2023/06/14 01:12:49;;;;;;;8.00;4.27;;;;;;;17.63;100.00;98862.09;5051357;28;20646;-79
2023/06/14 01:15:17;;;;;;;6.97;3.80;;;;;;;17.59;100.00;98860.78;5051109;28;20295;-79
2023/06/14 01:17:46;;;;;;;7.77;4.33;;;;;;;17.58;100.00;98874.69;5051563;28;20203;-79
2023/06/14 01:20:17;;;;;;;7.07;4.07;;;;;;;17.57;100.00;98868.72;5051254;28;20233;-79
2023/06/14 01:22:52;;;;;;;8.23;4.33;;;;;;;17.57;100.00;98867.88;5051111;28;20485;-79
2023/06/14 01:25:20;;;;;;;8.70;4.53;;;;;;;17.54;100.00;98866.44;5051440;28;20303;-79
2023/06/14 01:27:50;;;;;;;7.27;4.13;;;;;;;17.53;100.00;98861.44;5051537;28;20293;-80
2023/06/14 01:30:18;;;;;;;8.17;4.77;;;;;;;17.51;100.00;98864.19;5051961;28;20302;-80
2023/06/14 01:32:46;;;;;;;11.37;4.33;;;;;;;17.52;100.00;98865.00;5050866;28;20252;-80
2023/06/14 01:35:13;;;;;;;6.80;4.13;;;;;;;17.51;100.00;98859.03;5051240;28;20219;-79
2023/06/14 01:37:42;;;;;;;8.77;4.50;;;;;;;17.50;100.00;98861.75;5051395;28;20205;-79
2023/06/14 01:40:12;;;;;;;7.23;4.43;;;;;;;17.49;100.00;98860.94;5050933;28;20715;-79
2023/06/14 01:42:40;;;;;;;9.03;4.30;;;;;;;17.47;100.00;98868.03;5051706;28;20201;-79
2023/06/14 01:45:09;;;;;;;7.60;4.40;;;;;;;17.45;100.00;98864.00;5051016;28;20279;-79
2023/06/14 01:47:37;;;;;;;7.03;3.90;;;;;;;17.42;100.00;98862.53;5051138;28;20283;-79
2023/06/14 01:50:05;;;;;;;7.20;4.13;;;;;;;17.42;100.00;98860.78;5051325;28;20241;-79
2023/06/14 01:52:32;;;;;;;7.80;4.27;;;;;;;17.42;100.00;98862.53;5051019;28;20206;-79
2023/06/14 01:55:01;;;;;;;6.73;3.57;;;;;;;17.41;100.00;98863.53;5051113;28;20202;-79
2023/06/14 01:57:30;;;;;;;8.00;4.27;;;;;;;17.41;100.00;98868.69;5051467;28;20216;-79
2023/06/14 01:59:56;;;;;;;7.17;3.93;;;;;;;17.39;100.00;98866.28;5051921;28;20198;-79
2023/06/14 02:02:23;;;;;;;7.27;4.37;;;;;;;17.39;100.00;98862.88;5050912;28;20258;-79
2023/06/14 02:04:50;;;;;;;9.63;4.20;;;;;;;17.38;100.00;98869.81;5050515;28;20210;-79
2023/06/14 02:07:17;;;;;;;8.10;4.10;;;;;;;17.38;100.00;98872.41;5051524;28;20690;-79
2023/06/14 02:09:44;;;;;;;8.37;4.20;;;;;;;17.38;100.00;98869.81;5049843;28;20246;-79
2023/06/14 02:12:11;;;;;;;7.00;4.20;;;;;;;17.38;100.00;98879.34;5051497;28;20233;-79
2023/06/14 02:14:40;;;;;;;8.10;4.40;;;;;;;17.38;100.00;98874.97;5051182;28;20279;-80
2023/06/14 02:17:07;;;;;;;7.53;4.50;;;;;;;17.38;100.00;98879.34;5051059;28;20262;-80
2023/06/14 02:19:34;;;;;;;11.03;4.33;;;;;;;17.38;100.00;98880.16;5051813;28;20659;-80
2023/06/14 02:22:01;;;;;;;10.90;4.77;;;;;;;17.37;100.00;98878.53;5051239;28;20223;-80
2023/06/14 02:24:28;;;;;;;7.80;4.23;;;;;;;17.36;100.00;98879.50;5051321;28;20200;-80
2023/06/14 02:26:55;;;;;;;9.33;4.60;;;;;;;17.36;100.00;98876.91;5050918;28;20242;-79
2023/06/14 02:29:22;;;;;;;7.63;4.13;;;;;;;17.37;100.00;98881.13;5050657;28;20234;-80
2023/06/14 02:31:51;;;;;;;8.37;4.67;;;;;;;17.39;100.00;98876.63;5050973;28;20236;-80
2023/06/14 02:34:19;;;;;;;7.63;4.17;;;;;;;17.41;100.00;98879.84;5050450;28;20279;-80
2023/06/14 02:36:47;;;;;;;7.37;4.20;;;;;;;17.42;100.00;98891.81;5050546;28;20221;-80
2023/06/14 02:39:14;;;;;;;7.87;4.40;;;;;;;17.42;100.00;98890.97;5051106;28;20206;-79
2023/06/14 02:41:41;;;;;;;9.00;4.47;;;;;;;17.42;100.00;98896.13;5051580;28;20642;-80
2023/06/14 02:44:08;;;;;;;6.67;4.27;;;;;;;17.42;100.00;98886.63;5049956;28;20202;-80
2023/06/14 02:46:35;;;;;;;7.97;4.10;;;;;;;17.42;100.00;98883.22;5050165;28;20241;-80
2023/06/14 02:49:03;;;;;;;9.03;4.30;;;;;;;17.45;100.00;98887.25;5051062;28;20613;-79
2023/06/14 02:51:30;;;;;;;8.60;4.60;;;;;;;17.44;100.00;98901.97;5051587;28;20234;-79
2023/06/14 02:53:57;;;;;;;9.13;4.00;;;;;;;17.43;100.00;98908.13;5050756;28;20202;-79
2023/06/14 02:56:25;;;;;;;8.63;4.23;;;;;;;17.42;100.00;98916.81;5051164;28;20610;-79
2023/06/14 02:58:53;;;;;;;10.47;4.40;;;;;;;17.41;100.00;98903.09;5051211;28;20206;-80
2023/06/14 03:01:20;;;;;;;12.20;4.63;;;;;;;17.42;100.00;98915.06;5050212;28;20776;-80
2023/06/14 03:03:47;;;;;;;7.57;4.20;;;;;;;17.48;100.00;98915.38;5050085;28;20205;-80
2023/06/14 03:06:16;;;;;;;8.33;4.27;;;;;;;17.50;100.00;98923.78;5049662;28;20415;-80
2023/06/14 03:08:43;;;;;;;9.23;4.37;;;;;;;17.50;100.00;98924.59;5050377;28;20228;-80
2023/06/14 03:11:10;;;;;;;8.47;4.60;;;;;;;17.51;100.00;98926.22;5049886;28;20239;-80
2023/06/14 03:13:38;;;;;;;9.03;4.53;;;;;;;17.56;100.00;98917.97;5050754;28;20205;-79
2023/06/14 03:16:07;;;;;;;7.67;4.60;;;;;;;17.57;100.00;98919.59;5051424;28;20225;-79
2023/06/14 03:18:35;;;;;;;8.87;4.23;;;;;;;17.60;100.00;98929.63;5053346;28;20261;-79
2023/06/14 03:21:02;;;;;;;10.60;4.73;;;;;;;17.62;100.00;98930.25;5053943;28;20222;-79
2023/06/14 03:23:30;;;;;;;6.73;4.27;;;;;;;17.64;100.00;98920.56;5053512;28;20207;-79
2023/06/14 03:25:58;;;;;;;6.80;4.03;;;;;;;17.68;100.00;98927.03;5053852;28;20218;-80
2023/06/14 03:28:25;;;;;;;10.17;4.53;;;;;;;17.67;100.00;98930.59;5053303;28;20209;-79
2023/06/14 03:30:52;;;;;;;7.73;4.27;;;;;;;17.71;100.00;98931.88;5054168;28;20316;-79
2023/06/14 03:33:19;;;;;;;9.07;4.63;;;;;;;17.73;100.00;98934.31;5053646;28;20222;-79
2023/06/14 03:35:46;;;;;;;11.53;4.30;;;;;;;17.76;100.00;98939.16;5053077;28;20232;-79
2023/06/14 03:38:13;;;;;;;7.53;4.30;;;;;;;17.76;100.00;98939.16;5053421;28;20207;-79
2023/06/14 03:40:41;;;;;;;8.43;4.33;;;;;;;17.76;100.00;98939.97;5053404;28;20227;-79
2023/06/14 03:43:08;;;;;;;7.50;4.40;;;;;;;17.79;100.00;98944.84;5053392;28;20238;-80
2023/06/14 03:45:35;;;;;;;7.43;4.13;;;;;;;17.82;100.00;98939.38;5052915;28;20225;-80
2023/06/14 03:48:02;;;;;;;7.40;4.13;;;;;;;17.83;100.00;98935.81;5053302;28;20205;-80
2023/06/14 03:50:29;;;;;;;8.47;4.67;;;;;;;17.79;100.00;98934.50;5053822;28;20532;-80
2023/06/14 03:52:56;;;;;;;9.03;4.33;;;;;;;17.81;100.00;98945.50;5053091;28;20199;-80
2023/06/14 03:55:25;;;;;;;7.43;4.20;;;;;;;17.81;100.00;98932.59;5053372;28;20226;-80
2023/06/14 03:57:53;;;;;;;8.23;4.70;;;;;;;17.80;100.00;98941.31;5053557;28;20633;-79
2023/06/14 04:00:20;;;;;;;7.03;4.50;;;;;;;17.81;100.00;98937.75;5052367;28;20220;-80
2023/06/14 04:02:47;;;;;;;8.40;4.47;;;;;;;17.81;100.00;98942.13;5051519;28;20203;-80
2023/06/14 04:05:16;;;;;;;10.77;5.10;;;;;;;17.83;100.00;98941.00;5052367;28;20277;-80
2023/06/14 04:07:44;;;;;;;10.20;5.37;;;;;;;17.81;100.00;98942.94;5052748;28;20643;-80
2023/06/14 04:10:13;;;;;;;9.63;5.10;;;;;;;17.85;100.00;98946.00;5052798;28;20246;-79
2023/06/14 04:12:40;;;;;;;10.73;4.90;;;;;;;17.82;100.00;98949.72;5052994;28;20682;-79
2023/06/14 04:15:10;;;;;;;9.27;4.93;;;;;;;17.83;100.00;98946.16;5052581;28;20217;-79
2023/06/14 04:17:38;;;;;;;10.40;5.13;;;;;;;17.86;100.00;98951.03;5052556;28;20681;-79
2023/06/14 04:20:06;;;;;;;9.27;4.83;;;;;;;17.88;100.00;98949.06;5053381;28;20222;-79
2023/06/14 04:22:33;;;;;;;8.93;4.53;;;;;;;17.88;100.00;98949.06;5052403;28;20211;-79
2023/06/14 04:25:00;;;;;;;9.70;5.30;;;;;;;17.91;100.00;98952.31;5052827;28;20234;-80
2023/06/14 04:27:30;;;;;;;10.27;5.13;;;;;;;17.81;100.00;98952.47;5051810;28;20595;-80
2023/06/14 04:29:59;;;;;;;8.53;4.30;;;;;;;17.79;100.00;98952.63;5053484;28;20625;-80
2023/06/14 04:32:29;;;;;;;10.00;4.30;;;;;;;17.79;100.00;98960.38;5051433;28;20683;-80
2023/06/14 04:34:57;;;;;;;9.80;4.90;;;;;;;17.81;100.00;98958.44;5052503;28;20202;-79
2023/06/14 04:37:24;;;;;;;8.37;4.60;;;;;;;17.87;100.00;98957.81;5052073;28;20203;-79
2023/06/14 04:39:51;;;;;;;10.83;4.90;;;;;;;17.89;100.00;98965.41;5052832;28;20696;-80
2023/06/14 04:42:20;;;;;;;8.80;5.00;;;;;;;17.94;100.00;98965.72;5052785;28;20628;-79
2023/06/14 04:44:48;;;;;;;9.83;4.47;;;;;;;17.94;100.00;98972.69;5052081;28;20202;-80
2023/06/14 04:47:16;;;;;;;10.00;4.93;;;;;;;18.00;100.00;98969.44;5051607;28;20230;-79
2023/06/14 04:49:45;;;;;;;11.00;5.17;;;;;;;18.03;100.00;98971.69;5053409;28;20245;-80
2023/06/14 04:52:12;;;;;;;9.00;4.87;;;;;;;18.07;100.00;98970.44;5052222;28;20199;-80
2023/06/14 04:54:42;;;;;;;9.13;4.87;;;;;;;18.09;100.00;98981.41;5052184;28;20698;-80
2023/06/14 04:57:13;;;;;;;12.73;5.50;;;;;;;18.15;100.00;98980.78;5051997;28;20246;-80
2023/06/14 04:59:40;;;;;;;13.87;6.67;;;;;;;18.21;100.00;98974.97;5051514;28;20230;-81
2023/06/14 05:02:08;;;;;;;11.80;5.43;;;;;;;18.26;100.00;98972.66;5053022;28;20207;-79
2023/06/14 05:04:39;;;;;;;10.80;5.23;;;;;;;18.30;100.00;98983.53;5051473;28;20200;-82
2023/06/14 05:07:08;;;;;;;9.43;5.03;;;;;;;18.36;100.00;98984.66;5051330;28;20258;-81
2023/06/14 05:09:35;;;;;;;13.33;5.60;;;;;;;18.40;100.00;98984.16;5051723;28;20205;-82
2023/06/14 05:12:02;;;;;;;14.37;5.60;;;;;;;18.40;100.00;98983.34;5051163;28;20219;-80
2023/06/14 05:14:29;;;;;;;11.37;5.97;;;;;;;18.44;100.00;98987.22;5052328;28;20215;-80
2023/06/14 05:16:55;;;;;;;9.87;5.43;;;;;;;18.51;100.00;98993.38;5051422;28;20228;-80
2023/06/14 05:19:22;;;;;;;12.10;5.17;;;;;;;18.54;100.00;98990.44;5051507;28;20208;-80
2023/06/14 05:21:49;;;;;;;10.03;5.20;;;;;;;18.61;100.00;98991.41;5051792;28;20725;-80
2023/06/14 05:24:18;;;;;;;11.50;5.90;;;;;;;18.66;100.00;98994.31;5051910;28;20205;-80
2023/06/14 05:26:44;;;;;;;13.67;6.30;;;;;;;18.63;100.00;99004.19;5052112;28;20227;-80
2023/06/14 05:29:11;;;;;;;11.20;5.67;;;;;;;18.67;100.00;99002.88;5050835;28;20209;-80
2023/06/14 05:31:38;;;;;;;10.20;5.30;;;;;;;18.70;100.00;99003.38;5051417;28;20239;-80
2023/06/14 05:34:05;;;;;;;13.67;6.10;;;;;;;18.75;100.00;99003.69;5051672;28;20199;-80
2023/06/14 05:36:32;;;;;;;12.33;5.73;;;;;;;18.77;100.00;99001.75;5050712;28;20244;-80
2023/06/14 05:38:59;;;;;;;10.07;5.60;;;;;;;18.71;100.00;99002.41;5050766;28;20669;-80
2023/06/14 05:41:28;;;;;;;10.83;5.77;;;;;;;18.75;100.00;99008.88;5051103;28;20229;-80
2023/06/14 05:43:56;;;;;;;8.50;5.13;;;;;;;18.72;100.00;99005.78;5051029;28;20200;-80
2023/06/14 05:46:25;;;;;;;11.80;6.13;;;;;;;18.74;100.00;99007.28;5050857;28;20766;-81
2023/06/14 05:48:52;;;;;;;13.00;6.57;;;;;;;18.82;100.00;99003.03;5050812;28;20240;-81
2023/06/14 05:51:19;;;;;;;11.90;5.87;;;;;;;18.83;100.00;99002.09;5050337;28;20237;-81
2023/06/14 05:53:47;;;;;;;11.60;6.10;;;;;;;18.84;100.00;99003.69;5050129;28;20198;-82
2023/06/14 05:56:14;;;;;;;12.43;5.93;;;;;;;18.84;100.00;98991.53;5049837;28;20697;-82
2023/06/14 05:58:42;;;;;;;11.00;6.17;;;;;;;18.92;100.00;98999.28;5050474;28;20205;-82
2023/06/14 06:01:09;;;;;;;12.03;6.37;;;;;;;18.95;100.00;98998.16;5050242;28;20231;-82
2023/06/14 06:03:36;;;;;;;11.43;6.10;;;;;;;19.00;100.00;99001.88;5049949;28;20204;-82
2023/06/14 06:06:03;;;;;;;12.63;6.87;;;;;;;19.03;100.00;98994.75;5049845;28;20228;-82
2023/06/14 06:08:31;;;;;;;12.03;6.33;;;;;;;19.06;100.00;98995.22;5050058;28;20217;-82
2023/06/14 06:10:58;;;;;;;12.47;6.93;;;;;;;19.13;100.00;98996.16;5049568;28;20234;-82
2023/06/14 06:13:25;;;;;;;14.73;6.77;;;;;;;19.15;100.00;98994.19;5049988;28;20197;-82
2023/06/14 06:15:53;;;;;;;12.10;6.53;;;;;;;19.26;100.00;98999.97;5049837;28;20226;-82
2023/06/14 06:18:20;;;;;;;13.80;7.30;;;;;;;19.31;100.00;98998.50;5049784;28;20202;-82
2023/06/14 06:20:47;;;;;;;12.97;6.67;;;;;;;19.34;100.00;99012.91;5050140;28;20299;-81
2023/06/14 06:23:13;;;;;;;12.07;7.00;;;;;;;19.39;100.00;99008.03;5049790;28;20285;-82
2023/06/14 06:25:41;;;;;;;12.10;6.63;;;;;;;19.50;100.00;99006.84;5049729;28;20229;-82
2023/06/14 06:28:08;;;;;;;14.43;6.97;;;;;;;19.61;100.00;99003.88;5049716;28;20206;-82
2023/06/14 06:30:35;;;;;;;16.17;7.63;;;;;;;19.63;100.00;99018.28;5049928;28;20728;-82
2023/06/14 06:33:04;;;;;;;12.63;6.40;;;;;;;19.75;100.00;99023.09;5049985;28;20274;-83
2023/06/14 06:35:32;;;;;;;12.73;6.43;;;;;;;19.85;100.00;99026.28;5049951;28;20316;-82
2023/06/14 06:38:00;;;;;;;12.43;6.77;;;;;;;19.90;100.00;99035.19;5049603;28;20198;-82
2023/06/14 06:40:26;;;;;;;13.53;6.97;;;;;;;19.91;100.00;99033.38;5049916;28;20242;-82
2023/06/14 06:42:54;;;;;;;12.63;6.33;;;;;;;19.99;100.00;99038.53;5049790;28;20208;-81
2023/06/14 06:45:21;;;;;;;11.90;6.77;;;;;;;20.06;100.00;99033.44;5050123;28;20303;-81
2023/06/14 06:47:48;;;;;;;11.60;6.50;;;;;;;20.11;100.00;99034.53;5049695;28;20643;-81
2023/06/14 06:50:16;;;;;;;10.73;6.33;;;;;;;20.18;100.00;99037.25;5049392;28;20236;-81
2023/06/14 06:52:45;;;;;;;12.13;6.77;;;;;;;20.16;100.00;99030.59;5053878;28;20321;-81
2023/06/14 06:55:12;;;;;;;12.43;6.27;;;;;;;20.23;100.00;99028.94;5053762;28;20734;-81
2023/06/14 06:57:39;;;;;;;10.90;6.20;;;;;;;20.31;100.00;99031.50;5053725;28;20203;-81
2023/06/14 07:00:09;;;;;;;11.03;6.30;;;;;;;20.38;100.00;99027.19;5053505;28;20380;-81
2023/06/14 07:02:36;;;;;;;13.77;6.40;;;;;;;20.26;100.00;99039.78;5053014;28;20205;-81
2023/06/14 07:05:04;;;;;;;11.53;6.60;;;;;;;20.25;100.00;99027.78;5053153;28;20252;-81
2023/06/14 07:07:32;;;;;;;9.40;6.03;;;;;;;20.35;100.00;99037.94;5053180;28;20210;-81
2023/06/14 07:10:00;;;;;;;11.37;6.13;;;;;;;20.42;100.00;99046.66;5053291;28;20230;-81
2023/06/14 07:12:27;;;;;;;12.23;6.83;;;;;;;20.42;100.00;99049.25;5052853;28;20202;-81
2023/06/14 07:14:53;;;;;;;11.10;6.43;;;;;;;20.50;100.00;99056.94;5053208;28;20209;-80
2023/06/14 07:17:20;;;;;;;12.53;7.10;;;;;;;20.64;100.00;99054.59;5052995;28;20202;-80
2023/06/14 07:19:47;;;;;;;13.40;7.30;;;;;;;20.69;100.00;99049.69;5053299;28;20626;-80
2023/06/14 07:22:14;;;;;;;11.77;6.47;;;;;;;20.74;100.00;99057.75;5053016;28;20208;-80
2023/06/14 07:24:42;;;;;;;12.50;6.50;;;;;;;20.81;100.00;99058.66;5053350;28;20276;-81
2023/06/14 07:27:10;;;;;;;11.83;6.70;;;;;;;21.00;100.00;99052.97;5052964;28;20207;-80
2023/06/14 07:29:37;;;;;;;15.30;7.60;;;;;;;20.92;100.00;99070.44;5052779;28;20602;-81
2023/06/14 07:32:05;;;;;;;13.03;7.67;;;;;;;20.98;100.00;99070.50;5052834;28;20237;-80
2023/06/14 07:34:31;;;;;;;12.43;7.13;;;;;;;21.03;100.00;99073.41;5053052;28;20222;-80
2023/06/14 07:36:58;;;;;;;13.93;6.77;;;;;;;21.00;100.00;99071.16;5052636;28;20227;-80
2023/06/14 07:39:25;;;;;;;12.15;6.93;;;;;;;21.13;100.00;99072.31;5052476;28;20199;-80
2023/06/14 07:41:53;;;;;;;12.73;7.13;;;;;;;21.01;100.00;99071.97;5052549;28;20227;-81
2023/06/14 07:44:20;;;;;;;13.20;7.27;;;;;;;21.01;100.00;99069.34;5052829;28;20199;-80
2023/06/14 07:46:49;;;;;;;15.53;7.60;;;;;;;20.99;100.00;99069.53;5053392;28;20219;-79
2023/06/14 07:49:16;;;;;;;12.25;7.15;;;;;;;20.99;100.00;99073.91;5052524;28;20787;-79
2023/06/14 07:51:44;;;;;;;12.00;6.67;;;;;;;20.93;100.00;99075.44;5052439;28;20235;-80
2023/06/14 07:54:11;;;;;;;11.65;6.50;;;;;;;21.03;100.00;99078.59;5052324;28;20602;-81
2023/06/14 07:56:37;;;;;;;15.27;7.20;;;;;;;20.95;100.00;99065.69;5052702;28;20784;-80
2023/06/14 07:59:07;;;;;;;14.43;7.63;;;;;;;20.98;100.00;99075.72;5052378;28;20199;-81
2023/06/14 08:01:34;;;;;;;12.60;7.00;;;;;;;21.07;100.00;99075.63;5052422;28;20227;-80
2023/06/14 08:04:01;;;;;;;11.82;6.78;;;;;;;21.10;100.00;99072.69;5051762;28;20588;-81
2023/06/14 08:06:28;;;;;;;13.60;7.40;;;;;;;21.21;100.00;99070.44;5052120;28;20215;-80
2023/06/14 08:08:55;;;;;;;336.45;158.70;;;;;;;21.26;100.00;99080.28;5052094;28;20687;-79
2023/06/14 08:11:23;;;;;;;153.95;77.93;;;;;;;21.28;100.00;99080.91;5052174;28;20235;-79
2023/06/14 08:13:50;;;;;;;14.05;8.15;;;;;;;21.38;100.00;99071.09;5052610;28;20223;-79
2023/06/14 08:16:19;;;;;;;21.13;11.80;;;;;;;21.60;100.00;99079.75;5052278;28;20247;-79
2023/06/14 08:18:46;;;;;;;13.80;7.38;;;;;;;21.67;100.00;99077.22;5052680;28;20282;-78
2023/06/14 08:21:13;;;;;;;15.85;8.55;;;;;;;21.83;100.00;99090.03;5054608;28;20255;-80
2023/06/14 08:23:40;;;;;;;41.42;20.35;;;;;;;22.08;100.00;99087.09;5053649;28;20225;-78
2023/06/14 08:26:07;;;;;;;22.40;11.93;;;;;;;22.08;100.00;99087.91;5053650;28;20223;-78
2023/06/14 08:28:34;;;;;;;13.25;7.72;;;;;;;22.17;100.00;99083.41;5052354;28;20215;-78
2023/06/14 08:31:01;;;;;;;14.20;7.18;;;;;;;22.30;100.00;99090.53;5052304;28;20715;-78
2023/06/14 08:33:29;;;;;;;13.35;7.47;;;;;;;22.39;100.00;99094.63;5052509;28;20249;-79
2023/06/14 08:35:56;;;;;;;13.13;7.35;;;;;;;22.24;100.00;99106.91;5051859;28;20721;-79
2023/06/14 08:38:23;;;;;;;13.63;7.25;;;;;;;22.55;100.00;99099.56;5053033;28;20222;-79
2023/06/14 08:40:53;;;;;;;14.10;7.95;;;;;;;22.72;100.00;99100.13;5051931;28;20277;-78
2023/06/14 08:43:20;;;;;;;11.90;7.00;;;;;;;22.70;100.00;99104.72;5052081;28;20286;-79
2023/06/14 08:45:50;;;;;;;14.80;7.20;;;;;;;22.81;100.00;99098.97;5051641;28;20235;-79
2023/06/14 08:48:20;;;;;;;12.07;7.18;;;;;;;22.87;100.00;99107.03;5052046;28;20210;-79
2023/06/14 08:50:49;;;;;;;12.75;7.70;;;;;;;22.94;100.00;99106.06;5052375;28;20243;-78
2023/06/14 08:53:20;;;;;;;13.45;6.85;;;;;;;22.98;100.00;99106.53;5052123;28;20507;-79
2023/06/14 08:55:47;;;;;;;13.73;7.90;;;;;;;23.15;100.00;99104.44;5051409;28;20745;-79
2023/06/14 08:58:14;;;;;;;14.05;7.70;;;;;;;23.15;100.00;99120.09;5053025;28;20295;-79
2023/06/14 09:00:42;;;;;;;11.32;6.53;;;;;;;23.13;100.00;99117.69;5052178;28;20227;-79
2023/06/14 09:03:13;;;;;;;11.57;6.93;;;;;;;23.22;100.00;99116.53;5052779;28;20249;-79
2023/06/14 09:05:40;;;;;;;11.65;6.97;;;;;;;23.25;100.00;99129.19;5052811;28;20223;-79
2023/06/14 09:08:09;;;;;;;15.40;7.15;;;;;;;23.47;100.00;99113.44;5053177;28;20699;-79
2023/06/14 09:10:37;;;;;;;13.43;7.07;;;;;;;23.52;100.00;99116.28;5052347;28;20250;-79
2023/06/14 09:13:04;;;;;;;12.20;7.18;;;;;;;23.56;100.00;99117.53;5053242;28;20602;-78
2023/06/14 09:15:32;;;;;;;11.00;6.55;;;;;;;23.65;100.00;99121.56;5051481;28;20305;-79
2023/06/14 09:17:59;;;;;;;11.05;6.43;;;;;;;23.79;100.00;99116.41;5051780;28;20200;-78
2023/06/14 09:20:26;;;;;;;12.95;7.35;;;;;;;23.93;100.00;99124.09;5051969;28;20284;-79
2023/06/14 09:22:54;;;;;;;10.32;6.18;;;;;;;24.03;100.00;99112.47;5052115;28;20578;-79
2023/06/14 09:25:22;;;;;;;11.75;7.60;;;;;;;24.32;100.00;99116.56;5051659;28;20245;-79
2023/06/14 09:27:49;;;;;;;12.38;6.78;;;;;;;24.72;97.26;99121.84;5051866;28;20234;-79
2023/06/14 09:30:16;;;;;;;12.38;6.75;;;;;;;24.97;96.48;99122.03;5051951;28;20223;-79
2023/06/14 09:32:43;;;;;;;14.18;7.60;;;;;;;24.96;94.06;99123.84;5051949;28;20235;-79
2023/06/14 09:35:10;;;;;;;12.88;7.75;;;;;;;24.52;94.32;99117.41;5051741;28;20227;-79
2023/06/14 09:37:38;;;;;;;12.52;7.28;;;;;;;24.72;95.46;99112.16;5050890;28;20204;-80
2023/06/14 09:40:07;;;;;;;12.98;7.78;;;;;;;25.01;97.25;99110.13;5050761;28;20234;-79
2023/06/14 09:42:36;;;;;;;10.05;6.75;;;;;;;25.33;92.66;99116.34;5050617;28;20261;-80
2023/06/14 09:45:04;;;;;;;11.45;6.18;;;;;;;25.50;89.39;99114.88;5051132;28;21129;-79
2023/06/14 09:47:31;;;;;;;12.32;6.90;;;;;;;25.57;89.37;99108.81;5051068;28;20623;-79
2023/06/14 09:49:59;;;;;;;10.75;6.57;;;;;;;25.68;92.52;99110.78;5051231;28;20203;-79
2023/06/14 09:52:26;;;;;;;11.27;6.88;;;;;;;26.05;91.06;99111.84;5050956;28;20667;-79
2023/06/14 09:54:57;;;;;;;8.52;5.53;;;;;;;26.36;87.42;99120.72;5050583;28;20210;-79
2023/06/14 09:57:25;;;;;;;8.98;6.18;;;;;;;26.42;82.45;99132.97;5051518;28;20200;-79
2023/06/14 10:00:00;;;;;;;9.90;6.70;;;;;;;26.46;86.26;99121.03;5051361;28;20245;-79
2023/06/14 10:02:31;;;;;;;9.43;5.82;;;;;;;26.37;84.41;99115.25;5050692;28;20723;-79
2023/06/14 10:05:06;;;;;;;10.05;6.30;;;;;;;26.69;84.80;99112.63;5049574;28;20195;-80
2023/06/14 10:07:39;;;;;;;9.25;5.30;;;;;;;26.99;83.21;99111.94;5049367;28;20234;-79
2023/06/14 10:10:08;;;;;;;8.07;5.28;;;;;;;27.06;79.76;99112.69;5050054;28;20273;-80
2023/06/14 10:12:35;;;;;;;10.18;5.50;;;;;;;27.22;81.92;99109.50;5049889;28;20231;-80
2023/06/14 10:15:03;;;;;;;7.78;5.32;;;;;;;27.39;78.84;99107.09;5049827;28;20223;-80
2023/06/14 10:17:39;;;;;;;9.35;5.63;;;;;;;27.65;77.83;99113.88;5050795;28;20290;-80
2023/06/14 10:20:18;;;;;;;8.70;6.03;;;;;;;27.74;74.96;99109.91;5050345;28;20268;-80
2023/06/14 10:22:50;;;;;;;8.63;5.72;;;;;;;27.87;75.16;99114.22;5050876;28;20199;-79
2023/06/14 10:25:27;;;;;;;9.05;5.60;;;;;;;28.15;78.32;99100.47;5051167;28;20227;-79
2023/06/14 10:28:02;;;;;;;7.72;5.55;;;;;;;27.17;69.93;99104.13;5055406;28;20230;-79
2023/06/14 10:30:31;;;;;;;9.30;6.20;;;;;;;27.51;75.02;99100.09;5054995;28;20223;-79
2023/06/14 10:33:07;;;;;;;8.93;5.55;;;;;;;27.59;76.29;99106.06;5054429;28;20603;-79
2023/06/14 10:35:34;;;;;;;9.05;5.80;;;;;;;27.67;71.09;99114.47;5054020;28;20688;-80
2023/06/14 10:38:09;;;;;;;7.75;5.20;;;;;;;27.89;73.11;99111.38;5054758;28;20238;-80
2023/06/14 10:40:37;;;;;;;8.52;5.72;;;;;;;27.96;69.01;99101.59;5053662;28;20224;-80
2023/06/14 10:43:24;;;;;;;8.05;5.25;;;;;;;28.03;73.01;99097.03;5054194;28;20718;-80
2023/06/14 10:46:18;;;;;;;9.10;5.15;;;;;;;28.29;68.07;99100.28;5053823;28;20223;-80
2023/06/14 10:48:45;;;;;;;6.72;4.85;;;;;;;28.10;67.28;99103.00;5054264;28;20660;-80
2023/06/14 10:51:22;;;;;;;9.20;5.47;;;;;;;27.70;70.97;99098.25;5054095;28;20230;-80
2023/06/14 10:53:49;;;;;;;8.38;5.28;;;;;;;27.56;73.95;99088.94;5054274;28;20199;-80
2023/06/14 10:56:29;;;;;;;7.78;5.30;;;;;;;27.47;70.55;99082.38;5054560;28;20227;-80
2023/06/14 10:58:57;;;;;;;7.00;4.65;;;;;;;27.49;72.56;99082.97;5054404;28;20264;-80
2023/06/14 11:01:35;;;;;;;8.05;5.40;;;;;;;27.52;68.49;99085.16;5054229;28;20223;-80
2023/06/14 11:04:09;;;;;;;7.50;4.63;;;;;;;27.67;75.63;99075.06;5053721;28;20210;-80
2023/06/14 11:06:48;;;;;;;7.32;5.10;;;;;;;27.89;76.52;99064.06;5053869;28;20294;-80
2023/06/14 11:09:51;;;;;;;7.40;5.18;;;;;;;28.18;70.45;99067.69;5053687;28;20282;-80
2023/06/14 11:12:18;;;;;;;6.82;4.93;;;;;;;28.38;67.15;99067.38;5048539;28;20230;-80
2023/06/14 11:14:47;;;;;;;6.50;4.90;;;;;;;28.78;68.09;99069.38;5053579;28;20203;-80
2023/06/14 11:17:16;;;;;;;6.55;4.43;;;;;;;28.86;65.04;99069.03;5053814;28;20679;-80
2023/06/14 11:19:43;;;;;;;5.50;4.10;;;;;;;28.93;62.51;99069.69;5053108;28;20241;-80
2023/06/14 11:22:10;;;;;;;7.30;4.63;;;;;;;29.04;65.35;99058.38;5053986;28;20264;-80
2023/06/14 11:24:36;;;;;;;8.65;4.72;;;;;;;29.09;66.83;99062.97;5053367;28;20207;-80
2023/06/14 11:27:04;;;;;;;5.95;4.60;;;;;;;29.36;66.67;99060.59;5052907;28;20219;-80